Time;durP1;ratioP1;P1;durP2;ratioP2;P2;SDS_P1;SDS_P2;PMS_P1;PMS_P2;Temp;Humidity;BMP_temperature;BMP_pressure;BME280_temperature;BME280_humidity;BME280_pressure;Samples;Min_cycle;Max_cycle;Signal;HPM_P1;HPM_P2
2022/01/25 00:26:47;;;;;;;41.73;35.83;;;4.40;99.90;;;;;;5058115;28;20566;-71
2022/01/25 00:29:15;;;;;;;39.17;34.03;;;4.40;99.90;;;;;;5057608;28;20447;-72
2022/01/25 00:31:43;;;;;;;42.53;35.90;;;4.40;99.90;;;;;;5054458;28;20469;-71
2022/01/25 00:34:10;;;;;;;40.13;35.50;;;4.50;99.90;;;;;;5057360;28;20459;-69
2022/01/25 00:36:39;;;;;;;40.80;35.90;;;4.50;99.90;;;;;;5060962;28;20475;-72
2022/01/25 00:39:06;;;;;;;42.03;35.93;;;4.40;99.90;;;;;;5059090;28;20458;-71
2022/01/25 00:41:34;;;;;;;41.33;34.97;;;4.50;99.90;;;;;;5058707;28;20467;-70
2022/01/25 00:44:02;;;;;;;41.00;34.47;;;4.40;99.90;;;;;;5058403;28;20456;-70
2022/01/25 00:46:30;;;;;;;39.50;35.30;;;4.20;99.90;;;;;;5059292;28;20458;-72
2022/01/25 00:49:01;;;;;;;41.70;36.07;;;4.30;99.90;;;;;;5059242;28;20459;-70
2022/01/25 00:51:58;;;;;;;38.80;34.60;;;4.30;99.90;;;;;;5057036;28;20463;-72
2022/01/25 00:54:28;;;;;;;40.33;35.57;;;4.30;99.90;;;;;;5062452;28;21201;-70
2022/01/25 00:56:56;;;;;;;40.57;34.97;;;4.30;99.90;;;;;;5060027;28;20470;-72
2022/01/25 00:59:26;;;;;;;40.57;36.17;;;4.20;99.90;;;;;;5059707;28;20467;-71
2022/01/25 01:01:54;;;;;;;43.63;35.17;;;4.20;99.90;;;;;;5066029;28;20559;-73
2022/01/25 01:04:22;;;;;;;38.60;34.50;;;4.10;99.90;;;;;;5064199;28;20502;-70
2022/01/25 01:06:50;;;;;;;42.37;35.30;;;4.30;99.90;;;;;;5062831;28;20469;-72
2022/01/25 01:09:19;;;;;;;40.67;36.27;;;4.30;99.90;;;;;;5059673;28;20470;-71
2022/01/25 01:11:54;;;;;;;41.03;35.17;;;4.20;99.90;;;;;;5061192;28;20973;-72
2022/01/25 01:14:32;;;;;;;40.00;35.27;;;4.20;99.90;;;;;;5055824;28;20486;-70
2022/01/25 01:17:17;;;;;;;38.57;34.47;;;4.10;99.90;;;;;;5066668;28;20555;-73
2022/01/25 01:30:54;;;;;;;39.17;33.47;;;4.30;99.90;;;;;;5058564;28;20470;-70
2022/01/25 01:33:52;;;;;;;43.37;36.63;;;4.30;99.90;;;;;;5058263;28;20469;-70
2022/01/25 01:44:37;;;;;;;40.90;35.27;;;4.50;99.90;;;;;;5027041;28;20480;-70
2022/01/25 01:47:08;;;;;;;41.50;37.07;;;4.60;99.90;;;;;;5067700;28;20495;-71
2022/01/25 01:49:40;;;;;;;46.20;37.47;;;4.70;99.90;;;;;;5063456;28;20468;-72
2022/01/25 01:52:08;;;;;;;42.27;37.67;;;4.70;99.90;;;;;;5057979;28;20456;-71
2022/01/25 01:54:36;;;;;;;42.50;37.97;;;4.70;99.90;;;;;;5062676;28;20467;-73
2022/01/25 01:57:04;;;;;;;45.27;36.70;;;4.70;99.90;;;;;;5061294;28;20839;-70
2022/01/25 01:59:32;;;;;;;42.93;37.50;;;4.70;99.90;;;;;;5065131;28;20907;-72
2022/01/25 02:01:59;;;;;;;44.90;39.00;;;4.70;99.90;;;;;;5066423;28;21045;-71
2022/01/25 02:04:26;;;;;;;43.23;37.57;;;4.60;99.90;;;;;;5054086;28;20515;-70
2022/01/25 02:06:54;;;;;;;44.80;37.63;;;4.60;99.90;;;;;;5062170;28;20463;-72
2022/01/25 02:09:21;;;;;;;44.43;37.83;;;4.60;99.90;;;;;;5054356;28;20563;-72
2022/01/25 02:11:47;;;;;;;47.50;38.20;;;4.60;99.90;;;;;;5060569;28;20483;-70
2022/01/25 02:14:16;;;;;;;43.53;37.53;;;4.70;99.90;;;;;;5063144;28;20879;-70
2022/01/25 02:17:01;;;;;;;41.60;36.00;;;4.80;99.90;;;;;;5061767;28;20463;-70
2022/01/25 02:22:35;;;;;;;40.13;35.83;;;4.80;99.90;;;;;;5059167;28;20544;-70
2022/01/25 02:25:04;;;;;;;49.40;35.60;;;4.80;99.90;;;;;;5057570;28;20460;-71
2022/01/25 02:27:31;;;;;;;43.10;37.30;;;4.70;99.90;;;;;;5062682;28;20618;-72
2022/01/25 02:29:58;;;;;;;52.00;37.40;;;4.70;99.90;;;;;;5061088;28;20463;-72
2022/01/25 02:32:25;;;;;;;42.53;36.47;;;4.70;99.90;;;;;;5060038;28;20465;-73
2022/01/25 02:34:52;;;;;;;41.23;36.03;;;4.70;99.90;;;;;;5057896;28;20501;-70
2022/01/25 02:37:20;;;;;;;44.03;37.23;;;4.70;99.90;;;;;;5062492;28;20459;-71
2022/01/25 02:39:48;;;;;;;46.30;35.70;;;4.70;99.90;;;;;;5058715;28;20467;-72
2022/01/25 02:42:17;;;;;;;41.33;36.67;;;4.70;99.90;;;;;;5058974;28;20461;-71
2022/01/25 02:44:44;;;;;;;40.27;35.73;;;4.70;99.90;;;;;;5060347;28;20483;-72
2022/01/25 02:49:57;;;;;;;46.17;38.10;;;4.70;99.90;;;;;;5062315;28;20520;-69
2022/01/25 02:52:26;;;;;;;41.67;35.93;;;4.90;99.90;;;;;;5054337;28;20512;-72
2022/01/25 02:54:53;;;;;;;40.33;36.17;;;4.80;99.90;;;;;;5064962;28;20468;-69
2022/01/25 02:57:21;;;;;;;42.90;36.77;;;4.70;99.90;;;;;;5062315;28;20455;-71
2022/01/25 02:59:48;;;;;;;45.13;39.40;;;4.80;99.90;;;;;;5058768;28;20569;-71
2022/01/25 03:02:15;;;;;;;43.67;37.40;;;4.80;99.90;;;;;;5055905;28;20472;-71
2022/01/25 03:04:43;;;;;;;47.63;38.80;;;4.80;99.90;;;;;;5057533;28;20485;-70
2022/01/25 03:07:11;;;;;;;43.47;36.33;;;4.80;99.90;;;;;;5055540;28;20539;-69
2022/01/25 03:09:40;;;;;;;43.20;38.50;;;4.80;99.90;;;;;;5053342;28;21002;-70
2022/01/25 03:12:12;;;;;;;51.23;37.87;;;4.90;99.90;;;;;;5057844;28;20467;-72
2022/01/25 03:14:57;;;;;;;43.20;37.13;;;5.00;99.90;;;;;;5088623;28;20482;-70
2022/01/25 03:17:29;;;;;;;49.90;37.43;;;5.00;99.90;;;;;;5093656;28;20811;-70
2022/01/25 03:20:04;;;;;;;43.37;35.80;;;4.90;99.90;;;;;;5097030;28;20496;-70
2022/01/25 03:22:55;;;;;;;42.47;38.00;;;4.80;99.90;;;;;;5093457;28;20457;-71
2022/01/25 03:25:25;;;;;;;45.50;35.43;;;4.80;99.90;;;;;;5099864;28;20926;-70
2022/01/25 03:27:52;;;;;;;61.83;36.77;;;4.80;99.90;;;;;;5100157;28;21003;-71
2022/01/25 03:30:19;;;;;;;46.40;36.67;;;4.80;99.90;;;;;;5099212;28;20466;-69
2022/01/25 03:32:46;;;;;;;45.07;35.67;;;4.80;99.90;;;;;;5098725;28;20458;-71
2022/01/25 03:35:13;;;;;;;48.60;37.10;;;4.90;99.90;;;;;;5098035;28;20484;-73
2022/01/25 03:37:39;;;;;;;42.83;36.43;;;5.00;99.90;;;;;;5101143;28;20469;-71
2022/01/25 03:40:07;;;;;;;41.00;36.10;;;4.90;99.90;;;;;;5100806;28;20460;-72
2022/01/25 03:42:38;;;;;;;40.97;36.47;;;4.80;99.90;;;;;;5093321;28;20458;-72
2022/01/25 03:45:06;;;;;;;44.53;36.73;;;4.80;99.90;;;;;;5100057;28;20466;-70
2022/01/25 03:47:44;;;;;;;41.57;35.77;;;4.80;99.90;;;;;;5102048;28;20457;-73
2022/01/25 03:50:10;;;;;;;48.23;37.70;;;4.70;99.90;;;;;;5106096;28;20468;-69
2022/01/25 03:52:38;;;;;;;48.43;38.50;;;4.70;99.90;;;;;;5096730;28;20472;-73
2022/01/25 03:55:06;;;;;;;46.17;36.60;;;4.80;99.90;;;;;;5092479;28;20468;-73
2022/01/25 03:57:34;;;;;;;47.33;37.97;;;4.70;99.90;;;;;;5093310;28;20458;-72
2022/01/25 04:00:02;;;;;;;46.13;37.20;;;4.70;99.90;;;;;;5097891;28;20466;-70
2022/01/25 04:02:31;;;;;;;48.97;39.00;;;4.70;99.90;;;;;;5098631;28;20453;-71
2022/01/25 04:05:00;;;;;;;47.60;38.63;;;4.70;99.90;;;;;;5104032;28;20508;-73
2022/01/25 04:07:41;;;;;;;48.37;37.40;;;4.70;99.90;;;;;;5102032;28;20482;-72
2022/01/25 04:10:09;;;;;;;39.67;34.90;;;4.80;99.90;;;;;;5103765;28;20463;-71
2022/01/25 04:12:38;;;;;;;49.20;38.80;;;4.80;99.90;;;;;;5098769;28;20458;-71
2022/01/25 04:15:05;;;;;;;45.70;36.27;;;4.70;99.90;;;;;;5103313;28;20485;-72
2022/01/25 04:17:34;;;;;;;48.47;36.70;;;4.70;99.90;;;;;;5102644;28;20463;-71
2022/01/25 04:20:14;;;;;;;45.70;38.67;;;4.70;99.90;;;;;;5103087;28;20458;-69
2022/01/25 04:25:25;;;;;;;51.20;40.50;;;4.80;99.90;;;;;;5105360;28;20495;-72
2022/01/25 04:27:54;;;;;;;44.23;37.77;;;4.90;99.90;;;;;;5103524;28;20481;-72
2022/01/25 04:30:21;;;;;;;43.47;37.70;;;4.90;99.90;;;;;;5094446;28;20455;-71
2022/01/25 04:32:52;;;;;;;52.00;39.57;;;4.90;99.90;;;;;;5100035;28;20465;-72
2022/01/25 04:35:39;;;;;;;54.53;39.07;;;4.90;99.90;;;;;;5096872;28;20462;-71
2022/01/25 04:49:13;;;;;;;42.70;38.20;;;4.80;99.90;;;;;;5098287;28;20493;-72
2022/01/25 04:51:51;;;;;;;44.87;36.93;;;4.70;99.90;;;;;;5098259;28;20458;-72
2022/01/25 04:54:29;;;;;;;51.03;40.80;;;4.60;99.90;;;;;;5100801;28;20461;-72
2022/01/25 04:57:07;;;;;;;44.47;37.70;;;4.60;99.90;;;;;;5100396;28;20467;-70
2022/01/25 04:59:40;;;;;;;48.70;38.67;;;4.70;99.90;;;;;;5092368;28;20511;-71
2022/01/25 05:02:12;;;;;;;46.00;37.53;;;4.70;99.90;;;;;;5069503;28;20461;-72
2022/01/25 05:04:44;;;;;;;52.20;39.13;;;4.60;99.90;;;;;;5067949;28;20513;-72
2022/01/25 05:07:25;;;;;;;50.27;38.83;;;4.50;99.90;;;;;;5069874;28;20815;-71
2022/01/25 05:09:53;;;;;;;50.50;38.70;;;4.40;99.90;;;;;;5070444;28;20498;-72
2022/01/25 05:12:30;;;;;;;48.40;37.67;;;4.40;99.90;;;;;;5069908;28;21347;-72
2022/01/25 05:15:05;;;;;;;48.03;40.50;;;4.40;99.90;;;;;;5069317;28;20584;-71
2022/01/25 05:17:38;;;;;;;47.47;37.60;;;4.30;99.90;;;;;;5070576;28;20469;-71
2022/01/25 05:22:47;;;;;;;42.30;36.37;;;4.40;99.90;;;;;;5071232;28;20466;-72
2022/01/25 05:25:14;;;;;;;52.13;38.77;;;4.50;99.90;;;;;;5081692;27;20514;-70
2022/01/25 05:27:40;;;;;;;53.13;39.43;;;4.50;99.90;;;;;;5095842;28;20461;-72
2022/01/25 05:30:10;;;;;;;52.37;39.87;;;4.40;99.90;;;;;;5095457;28;20497;-70
2022/01/25 05:32:37;;;;;;;62.93;41.07;;;4.50;99.90;;;;;;5090972;28;20462;-70
2022/01/25 05:35:05;;;;;;;52.33;38.37;;;4.30;99.90;;;;;;5069452;28;20548;-70
2022/01/25 05:37:36;;;;;;;50.73;38.40;;;4.40;99.90;;;;;;5071031;28;20477;-71
2022/01/25 05:40:07;;;;;;;48.23;38.37;;;4.50;99.90;;;;;;5070512;28;21017;-71
2022/01/25 05:42:49;;;;;;;55.53;38.30;;;4.60;99.90;;;;;;5069564;28;20475;-70
2022/01/25 05:45:25;;;;;;;60.33;39.53;;;4.50;99.90;;;;;;5070013;28;20491;-71
2022/01/25 05:47:52;;;;;;;49.13;36.70;;;4.60;99.90;;;;;;5070697;28;20477;-71
2022/01/25 05:50:19;;;;;;;52.93;37.17;;;4.60;99.90;;;;;;5070354;28;20462;-71
2022/01/25 05:52:46;;;;;;;47.67;37.17;;;4.70;99.90;;;;;;5070921;28;20500;-71
2022/01/25 05:55:13;;;;;;;45.13;37.50;;;4.50;99.90;;;;;;5068353;28;20463;-71
2022/01/25 05:57:41;;;;;;;62.03;39.20;;;4.50;99.90;;;;;;5071998;28;20473;-70
2022/01/25 06:00:09;;;;;;;52.73;39.20;;;4.60;99.90;;;;;;5090698;28;20545;-70
2022/01/25 06:02:37;;;;;;;59.07;38.90;;;4.60;99.90;;;;;;5094965;28;21240;-71
2022/01/25 06:05:06;;;;;;;55.57;38.90;;;4.60;99.90;;;;;;5075032;28;21109;-71
2022/01/25 06:07:33;;;;;;;50.70;39.40;;;4.60;99.90;;;;;;5065134;28;21162;-71
2022/01/25 06:10:00;;;;;;;52.63;38.23;;;4.60;99.90;;;;;;5066122;28;20486;-70
2022/01/25 06:12:27;;;;;;;59.67;38.57;;;4.60;99.90;;;;;;5064452;28;20949;-71
2022/01/25 06:14:53;;;;;;;54.13;40.27;;;4.70;99.90;;;;;;5064240;28;20481;-70
2022/01/25 06:17:20;;;;;;;69.83;41.67;;;4.60;99.90;;;;;;5065658;28;20474;-70
2022/01/25 06:19:48;;;;;;;56.10;37.83;;;4.60;99.90;;;;;;5065855;28;20679;-71
2022/01/25 06:22:15;;;;;;;50.60;38.40;;;4.70;99.90;;;;;;5065243;28;20459;-70
2022/01/25 06:24:42;;;;;;;56.60;38.20;;;4.70;99.90;;;;;;5065628;28;20473;-71
2022/01/25 06:27:09;;;;;;;56.03;37.73;;;4.70;99.90;;;;;;5065209;28;20469;-71
2022/01/25 06:29:36;;;;;;;56.77;38.20;;;4.70;99.90;;;;;;5064814;28;20478;-71
2022/01/25 06:32:03;;;;;;;54.70;37.40;;;4.60;99.90;;;;;;5055367;28;20456;-71
2022/01/25 06:34:30;;;;;;;50.87;38.33;;;4.50;99.90;;;;;;5063649;28;20462;-70
2022/01/25 06:36:59;;;;;;;54.93;36.27;;;4.50;99.90;;;;;;5065154;28;20853;-71
2022/01/25 06:39:26;;;;;;;54.37;37.40;;;4.60;99.90;;;;;;5064540;28;20466;-71
2022/01/25 06:41:53;;;;;;;52.27;39.23;;;4.60;99.90;;;;;;5065429;28;21150;-71
2022/01/25 06:44:19;;;;;;;54.00;37.47;;;4.60;99.90;;;;;;5064817;28;21094;-70
2022/01/25 06:46:47;;;;;;;49.50;37.43;;;4.70;99.90;;;;;;5072399;28;20520;-70
2022/01/25 06:49:14;;;;;;;51.47;37.67;;;4.80;99.90;;;;;;5096679;28;20496;-70
2022/01/25 06:51:41;;;;;;;55.97;37.60;;;4.80;99.90;;;;;;5091985;28;21166;-70
2022/01/25 06:54:09;;;;;;;49.77;39.30;;;4.90;99.90;;;;;;5073065;28;20468;-71
2022/01/25 06:56:36;;;;;;;57.93;42.70;;;4.80;99.90;;;;;;5061987;28;21253;-71
2022/01/25 06:59:03;;;;;;;48.60;39.70;;;4.60;99.90;;;;;;5062077;28;20462;-71
2022/01/25 07:01:30;;;;;;;54.33;40.90;;;4.50;99.90;;;;;;5066647;28;20466;-70
2022/01/25 07:03:57;;;;;;;51.50;40.20;;;4.50;99.90;;;;;;5065117;28;20838;-70
2022/01/25 07:06:24;;;;;;;47.90;38.07;;;4.50;99.90;;;;;;5061652;28;20453;-70
2022/01/25 07:08:51;;;;;;;52.00;38.70;;;4.30;99.90;;;;;;5063124;28;20850;-71
2022/01/25 07:11:19;;;;;;;50.77;37.83;;;4.00;99.90;;;;;;5064195;28;20462;-70
2022/01/25 07:13:47;;;;;;;59.07;38.77;;;3.70;99.90;;;;;;5063596;28;21181;-71
2022/01/25 07:16:14;;;;;;;52.80;37.87;;;3.60;99.90;;;;;;5062640;28;21096;-71
2022/01/25 07:18:41;;;;;;;51.30;39.83;;;3.70;99.90;;;;;;5059690;28;20918;-71
2022/01/25 07:21:08;;;;;;;54.40;39.10;;;3.80;99.90;;;;;;5064020;28;20470;-71
2022/01/25 07:23:35;;;;;;;56.27;38.43;;;3.90;99.90;;;;;;5063444;28;21013;-71
2022/01/25 07:26:02;;;;;;;50.37;39.00;;;3.90;99.90;;;;;;5062881;28;21242;-71
2022/01/25 07:28:30;;;;;;;52.40;38.60;;;3.80;99.90;;;;;;5075731;28;20532;-70
2022/01/25 07:30:57;;;;;;;50.93;38.20;;;3.80;99.90;;;;;;5099205;28;20468;-70
2022/01/25 07:33:24;;;;;;;66.37;39.17;;;3.70;99.90;;;;;;5091601;28;20466;-70
2022/01/25 07:35:51;;;;;;;50.50;39.07;;;3.70;99.90;;;;;;5069119;28;20458;-70
2022/01/25 07:38:17;;;;;;;61.43;38.07;;;3.70;99.90;;;;;;5063490;28;20467;-70
2022/01/25 07:40:45;;;;;;;50.53;38.53;;;3.80;99.90;;;;;;5061470;28;20493;-70
2022/01/25 07:43:12;;;;;;;55.03;38.10;;;3.80;99.90;;;;;;5062272;28;20454;-71
2022/01/25 07:45:42;;;;;;;58.33;39.00;;;3.70;99.90;;;;;;5067056;28;20465;-70
2022/01/25 07:48:11;;;;;;;60.27;39.40;;;3.80;99.90;;;;;;5066888;28;20528;-71
2022/01/25 07:50:39;;;;;;;64.63;41.57;;;3.90;99.90;;;;;;5067446;28;21266;-70
2022/01/25 07:53:06;;;;;;;47.50;38.80;;;3.90;99.90;;;;;;5067063;28;20574;-71
2022/01/25 07:55:33;;;;;;;50.33;38.97;;;3.90;99.90;;;;;;5066518;28;20519;-70
2022/01/25 07:58:00;;;;;;;58.00;40.97;;;3.90;99.90;;;;;;5067591;28;20546;-71
2022/01/25 08:00:27;;;;;;;60.10;41.40;;;3.90;99.90;;;;;;5065085;28;20491;-71
2022/01/25 08:02:55;;;;;;;56.67;38.00;;;4.00;99.90;;;;;;5064707;28;20464;-71
2022/01/25 08:05:25;;;;;;;50.80;37.20;;;3.80;99.90;;;;;;5064601;28;20478;-71
2022/01/25 08:07:52;;;;;;;68.07;38.87;;;3.60;99.90;;;;;;5065797;28;20457;-71
2022/01/25 08:10:20;;;;;;;55.50;39.47;;;3.70;99.90;;;;;;5065516;28;20485;-71
2022/01/25 08:12:47;;;;;;;57.00;38.93;;;3.60;99.90;;;;;;5064833;28;20468;-71
2022/01/25 08:15:15;;;;;;;60.40;41.00;;;3.60;99.90;;;;;;5075733;28;20468;-70
2022/01/25 08:17:42;;;;;;;51.90;38.37;;;3.70;99.90;;;;;;5097976;28;20497;-70
2022/01/25 08:20:11;;;;;;;57.87;38.23;;;3.90;99.90;;;;;;5097461;28;20461;-70
2022/01/25 08:22:40;;;;;;;53.97;36.03;;;4.00;99.90;;;;;;5068436;28;20458;-71
2022/01/25 08:25:08;;;;;;;58.83;37.23;;;4.00;99.90;;;;;;5066403;28;20462;-71
2022/01/25 08:27:35;;;;;;;53.33;38.13;;;4.00;99.90;;;;;;5063285;28;20462;-71
2022/01/25 08:30:03;;;;;;;57.57;39.20;;;3.90;99.90;;;;;;5065022;28;20504;-71
2022/01/25 08:32:31;;;;;;;51.57;37.17;;;3.80;99.90;;;;;;5066852;28;20469;-70
2022/01/25 08:34:58;;;;;;;60.47;35.37;;;3.80;99.90;;;;;;5066188;28;20461;-70
2022/01/25 08:37:26;;;;;;;53.43;37.50;;;3.90;99.90;;;;;;5065374;28;20814;-70
2022/01/25 08:39:53;;;;;;;47.83;37.10;;;3.70;99.90;;;;;;5065155;28;20466;-70
2022/01/25 08:42:21;;;;;;;46.57;35.00;;;3.80;99.90;;;;;;5066211;28;20462;-71
2022/01/25 08:44:48;;;;;;;58.87;37.23;;;4.00;99.90;;;;;;5065995;28;20506;-72
2022/01/25 08:47:15;;;;;;;48.90;37.70;;;4.10;99.90;;;;;;5064340;28;20476;-70
2022/01/25 08:49:42;;;;;;;48.30;37.70;;;4.30;99.90;;;;;;5064088;28;21081;-70
2022/01/25 08:52:09;;;;;;;56.67;39.10;;;4.30;99.90;;;;;;5064061;28;20454;-71
2022/01/25 08:54:38;;;;;;;47.83;37.37;;;4.10;99.90;;;;;;5076695;28;20470;-72
2022/01/25 08:57:05;;;;;;;48.13;35.90;;;4.00;99.90;;;;;;5064707;28;20974;-71
2022/01/25 08:59:32;;;;;;;51.37;39.10;;;4.10;99.90;;;;;;5065451;28;20469;-71
2022/01/25 09:02:00;;;;;;;51.00;36.80;;;4.10;99.90;;;;;;5065391;28;20469;-70
2022/01/25 09:04:27;;;;;;;55.33;39.27;;;4.10;99.90;;;;;;5064655;28;20508;-71
2022/01/25 09:06:54;;;;;;;48.00;36.97;;;4.10;99.90;;;;;;5065748;28;20535;-70
2022/01/25 09:09:21;;;;;;;52.20;39.10;;;4.00;99.90;;;;;;5065112;28;21406;-70
2022/01/25 09:11:50;;;;;;;57.23;38.60;;;4.00;99.90;;;;;;5065275;28;21115;-70
2022/01/25 09:14:17;;;;;;;61.63;40.20;;;4.10;99.90;;;;;;5065359;28;20532;-71
2022/01/25 09:16:44;;;;;;;50.60;38.67;;;4.30;99.90;;;;;;5064306;28;20468;-71
2022/01/25 09:19:11;;;;;;;52.43;39.07;;;4.30;99.90;;;;;;5065017;28;20573;-70
2022/01/25 09:21:38;;;;;;;56.60;41.23;;;4.30;99.90;;;;;;5065295;28;20519;-71
2022/01/25 09:24:06;;;;;;;50.20;38.10;;;4.40;99.90;;;;;;5063891;28;20470;-71
2022/01/25 09:26:33;;;;;;;49.43;37.40;;;4.50;99.90;;;;;;5064845;28;21226;-71
2022/01/25 09:29:01;;;;;;;60.10;38.43;;;4.70;99.90;;;;;;5064565;28;21157;-70
2022/01/25 09:31:29;;;;;;;56.10;35.70;;;4.80;99.90;;;;;;5066015;28;20466;-71
2022/01/25 09:33:57;;;;;;;55.27;38.00;;;4.80;99.90;;;;;;5064853;28;20925;-70
2022/01/25 09:36:25;;;;;;;53.90;37.53;;;4.70;99.90;;;;;;5063144;28;20466;-71
2022/01/25 09:38:52;;;;;;;60.00;41.10;;;4.70;99.90;;;;;;5064068;28;21227;-70
2022/01/25 09:41:19;;;;;;;60.50;39.13;;;4.90;99.90;;;;;;5065196;28;20450;-71
2022/01/25 09:43:46;;;;;;;52.13;38.33;;;5.00;99.90;;;;;;5063492;28;20462;-71
2022/01/25 09:46:15;;;;;;;53.93;39.90;;;5.00;99.90;;;;;;5064085;28;20476;-70
2022/01/25 09:48:42;;;;;;;55.53;39.03;;;4.80;99.90;;;;;;5062856;28;20468;-71
2022/01/25 09:51:11;;;;;;;53.00;38.60;;;4.80;99.90;;;;;;5064969;28;20488;-71
2022/01/25 09:53:39;;;;;;;55.30;40.50;;;4.80;99.90;;;;;;5064196;28;20467;-71
2022/01/25 09:56:06;;;;;;;52.00;38.60;;;4.90;99.90;;;;;;5064185;28;20569;-68
2022/01/25 09:58:33;;;;;;;53.83;39.00;;;4.90;99.90;;;;;;5064859;28;20467;-69
2022/01/25 10:01:02;;;;;;;56.30;39.47;;;5.00;99.90;;;;;;5064621;28;20467;-71
2022/01/25 10:03:35;;;;;;;56.30;39.40;;;5.00;99.90;;;;;;5064287;28;20518;-71
2022/01/25 10:06:02;;;;;;;58.43;38.47;;;5.00;99.90;;;;;;5062940;28;20483;-70
2022/01/25 10:08:32;;;;;;;55.17;39.50;;;4.80;99.90;;;;;;5064793;28;20458;-71
2022/01/25 10:11:01;;;;;;;55.53;37.60;;;4.90;99.90;;;;;;5071360;28;20496;-70
2022/01/25 10:13:31;;;;;;;55.70;39.73;;;5.00;99.90;;;;;;5094077;28;20496;-70
2022/01/25 10:16:02;;;;;;;51.20;37.63;;;5.10;99.90;;;;;;5093637;28;21038;-71
2022/01/25 10:18:43;;;;;;;58.17;40.20;;;4.80;99.90;;;;;;5064025;28;20458;-71
2022/01/25 10:21:15;;;;;;;50.63;36.70;;;4.80;99.90;;;;;;5064717;28;20920;-71
2022/01/25 10:24:00;;;;;;;59.20;39.23;;;4.90;99.90;;;;;;5063055;28;20460;-70
2022/01/25 10:26:27;;;;;;;56.60;38.73;;;5.00;99.90;;;;;;5064275;28;20461;-71
2022/01/25 10:28:54;;;;;;;54.00;38.67;;;5.20;99.90;;;;;;5063922;28;20887;-71
2022/01/25 10:31:21;;;;;;;62.00;40.30;;;5.30;99.90;;;;;;5064013;28;21222;-71
2022/01/25 10:33:54;;;;;;;65.27;40.30;;;5.30;99.90;;;;;;5063070;28;20449;-70
2022/01/25 10:36:23;;;;;;;52.33;40.77;;;5.30;99.90;;;;;;5063046;28;20574;-71
2022/01/25 10:38:53;;;;;;;62.83;41.03;;;5.40;99.90;;;;;;5064786;28;20474;-70
2022/01/25 10:41:22;;;;;;;51.03;41.37;;;5.50;99.90;;;;;;5064411;28;20466;-71
2022/01/25 10:43:50;;;;;;;55.50;39.97;;;5.50;99.90;;;;;;5063475;28;20569;-71
2022/01/25 10:46:22;;;;;;;58.13;42.20;;;5.70;99.90;;;;;;5062555;28;20468;-71
2022/01/25 10:48:53;;;;;;;61.23;39.97;;;5.70;99.90;;;;;;5062915;28;20465;-69
2022/01/25 10:51:23;;;;;;;59.10;38.67;;;5.60;99.90;;;;;;5064446;28;20493;-70
2022/01/25 10:54:06;;;;;;;58.97;40.13;;;5.50;99.90;;;;;;5062581;28;20501;-69
2022/01/25 10:56:42;;;;;;;54.43;40.50;;;5.60;99.90;;;;;;5062592;28;20470;-69
2022/01/25 10:59:11;;;;;;;57.10;38.57;;;5.60;99.90;;;;;;5064161;28;20461;-69
2022/01/25 11:01:40;;;;;;;55.97;39.23;;;5.70;99.90;;;;;;5063168;28;20465;-69
2022/01/25 11:04:11;;;;;;;55.27;39.43;;;5.70;99.90;;;;;;5063141;28;20484;-69
2022/01/25 11:06:38;;;;;;;55.47;40.50;;;5.60;99.90;;;;;;5060600;28;20470;-69
2022/01/25 11:09:08;;;;;;;65.20;36.83;;;5.70;99.90;;;;;;5062571;28;20552;-70
2022/01/25 11:11:39;;;;;;;55.20;40.27;;;5.50;99.90;;;;;;5072858;28;20652;-69
2022/01/25 11:16:53;;;;;;;58.33;39.60;;;5.60;99.90;;;;;;5065159;28;20457;-70
2022/01/25 11:19:22;;;;;;;52.63;37.60;;;5.70;99.90;;;;;;5062578;28;20473;-70
2022/01/25 11:21:51;;;;;;;55.27;39.33;;;5.80;99.90;;;;;;5062612;28;21035;-69
2022/01/25 11:24:20;;;;;;;54.43;39.10;;;6.00;99.90;;;;;;5063404;28;20805;-69
2022/01/25 11:26:49;;;;;;;63.20;40.40;;;6.00;99.90;;;;;;5063207;28;20481;-70
2022/01/25 11:29:16;;;;;;;56.83;40.60;;;6.10;99.90;;;;;;5063640;28;20465;-70
2022/01/25 11:31:50;;;;;;;61.10;39.20;;;6.30;99.90;;;;;;5062817;28;20498;-69
2022/01/25 11:34:18;;;;;;;59.20;40.00;;;6.10;99.90;;;;;;5062799;28;20466;-69
2022/01/25 11:36:52;;;;;;;60.63;40.27;;;6.20;99.90;;;;;;5063403;28;22508;-70
2022/01/25 11:39:21;;;;;;;64.33;40.07;;;6.20;99.90;;;;;;5064014;28;21278;-69
2022/01/25 11:41:48;;;;;;;53.70;39.17;;;6.20;99.90;;;;;;5062446;28;20472;-69
2022/01/25 11:44:21;;;;;;;64.53;37.50;;;6.20;99.90;;;;;;5061780;28;20473;-71
2022/01/25 11:46:51;;;;;;;59.60;39.10;;;6.20;99.90;;;;;;5062862;28;20975;-69
2022/01/25 11:49:21;;;;;;;54.07;37.03;;;6.10;99.90;;;;;;5062577;28;20465;-71
2022/01/25 11:52:06;;;;;;;52.80;38.93;;;6.10;99.90;;;;;;5062196;28;20507;-72
2022/01/25 11:54:35;;;;;;;61.27;37.07;;;6.10;99.90;;;;;;5059424;28;20507;-71
2022/01/25 11:57:14;;;;;;;60.00;39.20;;;5.90;99.90;;;;;;5063122;28;20496;-70
2022/01/25 11:59:41;;;;;;;52.80;37.17;;;6.10;99.90;;;;;;5062814;28;20461;-71
2022/01/25 12:02:08;;;;;;;71.70;41.70;;;6.10;99.90;;;;;;5062692;28;20465;-71
2022/01/25 12:04:36;;;;;;;71.50;39.83;;;6.20;99.90;;;;;;5062060;28;20513;-71
2022/01/25 12:07:24;;;;;;;56.93;39.43;;;6.20;99.90;;;;;;5061876;28;20600;-71
2022/01/25 12:10:02;;;;;;;49.70;37.47;;;6.20;99.90;;;;;;5062767;28;20462;-70
2022/01/25 12:12:29;;;;;;;56.57;37.40;;;6.30;99.90;;;;;;5063421;28;20499;-70
2022/01/25 12:14:56;;;;;;;50.97;35.40;;;6.50;99.90;;;;;;5060786;28;21244;-69
2022/01/25 12:17:25;;;;;;;58.17;40.77;;;6.50;99.90;;;;;;5063002;28;20470;-70
2022/01/25 12:19:54;;;;;;;60.23;37.63;;;6.70;99.90;;;;;;5061872;28;20473;-69
2022/01/25 12:22:38;;;;;;;50.47;36.33;;;6.70;99.90;;;;;;5062018;28;20464;-69
2022/01/25 12:25:13;;;;;;;55.70;37.60;;;6.50;99.90;;;;;;5060967;28;20493;-70
2022/01/25 12:27:46;;;;;;;54.03;38.13;;;6.40;99.90;;;;;;5061717;28;20462;-70
2022/01/25 12:30:18;;;;;;;50.23;37.13;;;6.40;99.90;;;;;;5063212;28;20510;-69
2022/01/25 12:32:59;;;;;;;56.60;37.13;;;6.60;99.90;;;;;;5064961;28;20460;-70
2022/01/25 12:35:42;;;;;;;52.43;39.63;;;6.70;99.90;;;;;;5064507;28;20687;-70
2022/01/25 12:38:16;;;;;;;46.37;35.60;;;6.60;99.90;;;;;;5063245;28;20462;-69
2022/01/25 12:43:39;;;;;;;54.53;35.73;;;6.70;99.90;;;;;;5066251;28;20460;-69
2022/01/25 12:46:10;;;;;;;46.37;36.00;;;6.60;99.90;;;;;;5066157;28;20859;-70
2022/01/25 12:48:40;;;;;;;49.27;36.20;;;6.60;99.90;;;;;;5066222;28;20506;-72
2022/01/25 12:51:11;;;;;;;59.97;36.60;;;6.50;99.90;;;;;;5066239;28;20582;-70
2022/01/25 12:53:42;;;;;;;55.40;39.37;;;6.50;99.90;;;;;;5065235;28;20825;-69
2022/01/25 12:56:14;;;;;;;67.20;38.47;;;6.50;99.90;;;;;;5065379;28;20501;-72
2022/01/25 12:58:41;;;;;;;64.20;38.70;;;6.50;99.90;;;;;;5065706;28;21191;-70
2022/01/25 13:01:12;;;;;;;53.80;37.63;;;6.50;99.90;;;;;;5065665;28;20838;-69
2022/01/25 13:03:43;;;;;;;81.07;39.17;;;6.50;99.90;;;;;;5064942;28;20888;-70
2022/01/25 13:06:13;;;;;;;62.30;38.80;;;6.50;99.90;;;;;;5064533;28;20883;-70
2022/01/25 13:08:47;;;;;;;59.10;38.50;;;6.40;99.90;;;;;;5064704;28;20457;-70
2022/01/25 13:11:30;;;;;;;58.60;38.97;;;6.40;99.90;;;;;;5065170;28;20579;-72
2022/01/25 13:16:47;;;;;;;57.57;36.53;;;6.40;99.90;;;;;;5047410;28;21472;-69
2022/01/25 13:19:16;;;;;;;60.07;39.20;;;6.30;99.90;;;;;;5063887;28;20546;-69
2022/01/25 13:21:45;;;;;;;53.70;38.87;;;6.20;99.90;;;;;;5065207;28;20472;-70
2022/01/25 13:24:17;;;;;;;57.97;38.10;;;6.30;99.90;;;;;;5064135;28;20474;-71
2022/01/25 13:26:52;;;;;;;63.83;40.00;;;6.40;99.90;;;;;;5063014;28;20488;-70
2022/01/25 13:32:17;;;;;;;54.70;40.00;;;6.30;99.90;;;;;;5064335;28;21209;-70
2022/01/25 13:34:59;;;;;;;61.93;39.47;;;6.20;99.90;;;;;;5064578;28;20554;-70
2022/01/25 13:37:26;;;;;;;51.60;37.90;;;6.20;99.90;;;;;;5067500;28;20468;-70
2022/01/25 13:39:59;;;;;;;57.80;38.97;;;6.30;99.90;;;;;;5095520;28;20545;-70
2022/01/25 13:42:35;;;;;;;57.07;40.03;;;6.30;99.90;;;;;;5075085;28;20491;-70
2022/01/25 13:48:05;;;;;;;61.50;39.03;;;6.10;99.90;;;;;;5064680;28;21102;-71
2022/01/25 13:50:33;;;;;;;56.97;39.50;;;6.00;99.90;;;;;;5064032;28;21012;-70
2022/01/25 13:53:00;;;;;;;55.27;37.00;;;6.10;99.90;;;;;;5062991;28;20467;-70
2022/01/25 13:55:29;;;;;;;57.50;40.57;;;6.00;99.90;;;;;;5063826;28;20528;-70
2022/01/25 13:57:56;;;;;;;68.03;37.67;;;6.00;99.90;;;;;;5068153;28;20460;-71
2022/01/25 14:00:24;;;;;;;74.50;38.87;;;5.90;99.90;;;;;;5064398;28;20489;-69
2022/01/25 14:02:52;;;;;;;58.97;39.33;;;5.90;99.90;;;;;;5064728;28;20463;-71
2022/01/25 14:05:19;;;;;;;63.67;40.50;;;6.00;99.90;;;;;;5063018;28;21098;-71
2022/01/25 14:07:49;;;;;;;67.97;40.07;;;5.90;99.90;;;;;;5064120;28;20463;-70
2022/01/25 14:10:22;;;;;;;65.00;39.50;;;5.90;99.90;;;;;;5064221;28;22299;-71